Time;durP1;ratioP1;P1;durP2;ratioP2;P2;SDS_P1;SDS_P2;PMS_P1;PMS_P2;Temp;Humidity;BMP_temperature;BMP_pressure;BME280_temperature;BME280_humidity;BME280_pressure;Samples;Min_cycle;Max_cycle;Signal;HPM_P1;HPM_P2
2021/10/27 00:01:44;;;;;;;10.70;3.65;;;;;;;;;;4916928;29;20032;-36
2021/10/27 00:04:10;;;;;;;6.05;3.33;;;;;;;;;;4916814;29;20042;-36
2021/10/27 00:06:36;;;;;;;7.47;5.38;;;;;;;;;;4915603;29;20464;-36
2021/10/27 00:09:03;;;;;;;7.68;3.10;;;;;;;;;;4916822;29;20032;-36
2021/10/27 00:11:29;;;;;;;5.90;3.28;;;;;;;;;;4916759;29;20107;-36
2021/10/27 00:13:55;;;;;;;7.45;4.78;;;;;;;;;;4916772;29;20500;-36
2021/10/27 00:16:20;;;;;;;4.78;3.40;;;;;;;;;;4916683;29;20024;-36
2021/10/27 00:18:46;;;;;;;8.45;3.70;;;;;;;;;;4916615;29;20392;-36
2021/10/27 00:21:11;;;;;;;7.88;3.45;;;;;;;;;;4916477;29;20044;-36
2021/10/27 00:23:37;;;;;;;7.55;3.63;;;;;;;;;;4916825;29;20035;-36
2021/10/27 00:26:03;;;;;;;6.38;3.60;;;;;;;;;;4916450;29;20389;-35
2021/10/27 00:28:28;;;;;;;5.55;3.55;;;;;;;;;;4916570;29;20043;-36
2021/10/27 00:30:54;;;;;;;8.38;3.33;;;;;;;;;;4916386;29;20028;-36
2021/10/27 00:33:20;;;;;;;6.65;3.88;;;;;;;;;;4916454;29;20032;-36
2021/10/27 00:35:46;;;;;;;9.27;3.95;;;;;;;;;;4916567;29;20040;-36
2021/10/27 00:38:11;;;;;;;8.43;4.38;;;;;;;;;;4916242;29;20099;-36
2021/10/27 00:40:37;;;;;;;8.07;3.75;;;;;;;;;;4916599;29;20576;-36
2021/10/27 00:43:02;;;;;;;4.43;3.53;;;;;;;;;;4916225;29;20400;-35
2021/10/27 00:45:28;;;;;;;8.38;3.95;;;;;;;;;;4916260;29;20052;-36
2021/10/27 00:47:54;;;;;;;4.55;3.20;;;;;;;;;;4916154;29;20399;-37
2021/10/27 00:50:19;;;;;;;6.78;3.80;;;;;;;;;;4915947;29;20027;-36
2021/10/27 00:52:45;;;;;;;6.60;3.55;;;;;;;;;;4916166;29;20040;-36
2021/10/27 00:55:10;;;;;;;6.45;3.70;;;;;;;;;;4915782;29;20262;-36
2021/10/27 00:57:37;;;;;;;4.68;3.20;;;;;;;;;;4916213;29;20050;-37
2021/10/27 01:00:06;;;;;;;4.10;3.20;;;;;;;;;;4915859;29;20020;-36
2021/10/27 01:02:32;;;;;;;4.13;3.22;;;;;;;;;;4915767;29;20044;-36
2021/10/27 01:04:58;;;;;;;4.53;3.00;;;;;;;;;;4914687;29;20530;-37
2021/10/27 01:07:24;;;;;;;12.57;4.00;;;;;;;;;;4915773;29;20040;-36
2021/10/27 01:09:50;;;;;;;4.88;3.47;;;;;;;;;;4915540;29;20096;-36
2021/10/27 01:12:16;;;;;;;6.60;4.18;;;;;;;;;;4915685;29;20036;-36
2021/10/27 01:14:43;;;;;;;8.00;3.65;;;;;;;;;;4914450;29;20035;-36
2021/10/27 01:17:10;;;;;;;10.07;4.28;;;;;;;;;;4914384;29;20035;-37
2021/10/27 01:19:42;;;;;;;6.93;3.50;;;;;;;;;;4915639;29;20444;-36
2021/10/27 01:22:08;;;;;;;5.57;3.53;;;;;;;;;;4915520;29;20083;-35
2021/10/27 01:24:33;;;;;;;4.05;3.30;;;;;;;;;;4915470;29;20055;-36
2021/10/27 01:26:58;;;;;;;4.07;3.03;;;;;;;;;;4915770;29;20032;-36
2021/10/27 01:29:24;;;;;;;5.78;3.65;;;;;;;;;;4929973;29;20024;-36
2021/10/27 01:31:50;;;;;;;5.40;3.50;;;;;;;;;;4915299;29;20487;-36
2021/10/27 01:34:15;;;;;;;5.90;3.45;;;;;;;;;;4915249;29;20135;-36
2021/10/27 01:36:41;;;;;;;6.93;3.80;;;;;;;;;;4915420;29;20456;-37
2021/10/27 01:39:07;;;;;;;12.98;3.95;;;;;;;;;;4915434;29;20120;-36
2021/10/27 01:41:33;;;;;;;7.55;4.10;;;;;;;;;;4915283;29;20087;-36
2021/10/27 01:43:58;;;;;;;3.92;3.40;;;;;;;;;;4915318;29;20721;-36
2021/10/27 01:46:29;;;;;;;8.10;2.83;;;;;;;;;;4915068;29;20040;-36
2021/10/27 01:48:55;;;;;;;7.90;3.83;;;;;;;;;;4915270;29;20031;-36
2021/10/27 01:51:21;;;;;;;3.55;2.90;;;;;;;;;;4915400;29;20410;-36
2021/10/27 01:53:46;;;;;;;5.90;4.55;;;;;;;;;;4915215;29;20020;-36
2021/10/27 01:56:12;;;;;;;4.13;3.05;;;;;;;;;;4915015;29;20032;-37
2021/10/27 01:58:38;;;;;;;4.63;3.47;;;;;;;;;;4915399;29;20122;-43
2021/10/27 02:01:04;;;;;;;8.93;3.67;;;;;;;;;;4913771;29;20472;-36
2021/10/27 02:03:30;;;;;;;5.28;3.03;;;;;;;;;;4914998;29;20051;-36
2021/10/27 02:05:56;;;;;;;8.10;3.70;;;;;;;;;;4915014;29;20371;-36
2021/10/27 02:08:22;;;;;;;6.80;4.07;;;;;;;;;;4914894;29;20043;-36
2021/10/27 02:10:47;;;;;;;6.10;3.35;;;;;;;;;;4914995;29;20024;-36
2021/10/27 02:13:13;;;;;;;6.10;3.30;;;;;;;;;;4914958;29;20084;-36
2021/10/27 02:15:38;;;;;;;4.80;3.42;;;;;;;;;;4914838;29;20020;-36
2021/10/27 02:18:04;;;;;;;5.50;3.30;;;;;;;;;;4914951;29;20554;-36
2021/10/27 02:20:29;;;;;;;6.07;3.30;;;;;;;;;;4916397;29;20024;-36
2021/10/27 02:22:55;;;;;;;6.35;4.15;;;;;;;;;;4918684;29;20067;-35
2021/10/27 02:25:20;;;;;;;5.93;3.53;;;;;;;;;;4918737;29;20116;-36
2021/10/27 02:27:46;;;;;;;5.22;3.70;;;;;;;;;;4918835;29;20080;-36
2021/10/27 02:30:11;;;;;;;6.50;3.30;;;;;;;;;;4918579;29;20543;-36
2021/10/27 02:32:37;;;;;;;7.47;3.55;;;;;;;;;;4918891;29;20032;-36
2021/10/27 02:35:03;;;;;;;7.18;3.55;;;;;;;;;;4917141;29;20499;-36
2021/10/27 02:37:28;;;;;;;7.70;3.53;;;;;;;;;;4901618;29;20032;-36
2021/10/27 02:39:55;;;;;;;5.32;3.25;;;;;;;;;;4918680;29;20407;-36
2021/10/27 02:42:21;;;;;;;4.43;3.28;;;;;;;;;;4918317;29;20127;-36
2021/10/27 02:44:48;;;;;;;6.13;3.80;;;;;;;;;;4918277;29;20020;-36
2021/10/27 02:47:13;;;;;;;6.68;3.58;;;;;;;;;;4918199;29;20047;-36
2021/10/27 02:49:38;;;;;;;7.47;3.83;;;;;;;;;;4918583;29;20020;-36
2021/10/27 02:52:04;;;;;;;5.88;3.75;;;;;;;;;;4918197;29;20581;-37
2021/10/27 02:54:29;;;;;;;10.93;4.28;;;;;;;;;;4918225;29;20068;-36
2021/10/27 02:56:55;;;;;;;6.30;3.53;;;;;;;;;;4918387;29;20036;-36
2021/10/27 02:59:20;;;;;;;10.27;3.45;;;;;;;;;;4918001;29;20043;-36
2021/10/27 03:01:46;;;;;;;6.88;3.78;;;;;;;;;;4918029;29;20082;-36
2021/10/27 03:04:11;;;;;;;4.90;3.35;;;;;;;;;;4917878;29;20066;-36
2021/10/27 03:06:37;;;;;;;6.90;4.47;;;;;;;;;;4918084;29;20517;-36
2021/10/27 03:09:02;;;;;;;11.18;3.53;;;;;;;;;;4918251;29;20445;-36
2021/10/27 03:11:28;;;;;;;6.13;3.55;;;;;;;;;;4917724;29;20479;-36
2021/10/27 03:13:53;;;;;;;5.22;3.22;;;;;;;;;;4916675;29;20107;-36
2021/10/27 03:16:19;;;;;;;7.97;3.75;;;;;;;;;;4917850;29;20036;-36
2021/10/27 03:18:44;;;;;;;8.07;3.72;;;;;;;;;;4917673;29;20035;-36
2021/10/27 03:21:09;;;;;;;4.63;3.35;;;;;;;;;;4917619;29;20032;-36
2021/10/27 03:23:35;;;;;;;6.50;3.72;;;;;;;;;;4917615;29;20055;-36
2021/10/27 03:26:00;;;;;;;9.45;3.63;;;;;;;;;;4917536;29;20036;-36
2021/10/27 03:28:26;;;;;;;5.80;3.42;;;;;;;;;;4917644;29;20024;-36
2021/10/27 03:30:51;;;;;;;5.03;3.15;;;;;;;;;;4917390;29;20065;-37
2021/10/27 03:33:17;;;;;;;7.88;3.88;;;;;;;;;;4917194;29;20082;-36
2021/10/27 03:35:42;;;;;;;5.72;3.08;;;;;;;;;;4917518;29;20032;-36
2021/10/27 03:38:08;;;;;;;5.32;3.50;;;;;;;;;;4917377;29;20032;-36
2021/10/27 03:40:33;;;;;;;5.00;2.90;;;;;;;;;;4931983;29;20032;-36
2021/10/27 03:42:59;;;;;;;5.55;3.67;;;;;;;;;;4917301;29;20036;-36
2021/10/27 03:45:24;;;;;;;4.88;3.38;;;;;;;;;;4917158;29;20035;-36
2021/10/27 03:47:50;;;;;;;4.57;3.45;;;;;;;;;;4917520;29;20028;-36
2021/10/27 03:50:15;;;;;;;9.32;3.90;;;;;;;;;;4917069;29;20107;-35
2021/10/27 03:52:42;;;;;;;7.00;3.47;;;;;;;;;;4917474;29;20654;-36
2021/10/27 03:55:08;;;;;;;5.55;3.45;;;;;;;;;;4916969;29;20076;-36
2021/10/27 03:57:33;;;;;;;5.82;3.30;;;;;;;;;;4917167;29;20024;-36
2021/10/27 03:59:59;;;;;;;5.35;3.88;;;;;;;;;;4917104;29;20115;-36
2021/10/27 04:02:25;;;;;;;4.78;3.53;;;;;;;;;;4916694;29;20072;-36
2021/10/27 04:04:50;;;;;;;6.88;3.45;;;;;;;;;;4917037;29;20024;-36
2021/10/27 04:07:16;;;;;;;5.28;3.25;;;;;;;;;;4916775;29;20031;-36
2021/10/27 04:09:41;;;;;;;5.10;3.13;;;;;;;;;;4916917;29;20065;-38
2021/10/27 04:12:07;;;;;;;8.30;4.10;;;;;;;;;;4917070;29;20071;-39
2021/10/27 04:14:33;;;;;;;4.63;3.47;;;;;;;;;;4917075;29;20028;-36
2021/10/27 04:16:58;;;;;;;5.78;3.28;;;;;;;;;;4916752;29;20103;-36
2021/10/27 04:19:24;;;;;;;7.15;3.83;;;;;;;;;;4916595;29;20033;-35
2021/10/27 04:21:50;;;;;;;6.03;4.00;;;;;;;;;;4916600;29;20043;-35
2021/10/27 04:24:16;;;;;;;6.72;2.92;;;;;;;;;;4916822;29;20040;-35
2021/10/27 04:26:41;;;;;;;10.07;3.60;;;;;;;;;;4916612;29;20027;-36
2021/10/27 04:29:07;;;;;;;6.03;3.17;;;;;;;;;;4915238;29;20047;-36
2021/10/27 04:31:32;;;;;;;4.68;3.50;;;;;;;;;;4916497;29;20020;-35
2021/10/27 04:33:58;;;;;;;4.93;2.80;;;;;;;;;;4916394;29;20044;-36
2021/10/27 04:36:23;;;;;;;5.97;3.80;;;;;;;;;;4916219;29;20036;-36
2021/10/27 04:38:49;;;;;;;4.90;3.50;;;;;;;;;;4916426;29;20028;-36
2021/10/27 04:41:14;;;;;;;5.00;3.58;;;;;;;;;;4916475;29;20075;-36
2021/10/27 04:43:40;;;;;;;4.43;2.83;;;;;;;;;;4915617;29;20047;-36
2021/10/27 04:46:06;;;;;;;7.93;3.97;;;;;;;;;;4916008;29;20032;-36
2021/10/27 04:48:31;;;;;;;8.77;4.30;;;;;;;;;;4916490;29;20092;-36
2021/10/27 04:50:57;;;;;;;5.72;2.90;;;;;;;;;;4916363;29;20080;-36
2021/10/27 04:53:25;;;;;;;6.15;3.63;;;;;;;;;;4916313;29;20540;-35
2021/10/27 04:55:51;;;;;;;12.05;4.88;;;;;;;;;;4916088;29;20123;-37
2021/10/27 04:58:17;;;;;;;7.07;3.67;;;;;;;;;;4915755;29;20111;-36
2021/10/27 05:00:43;;;;;;;11.93;4.40;;;;;;;;;;4915967;29;20111;-36
2021/10/27 05:03:09;;;;;;;7.43;3.72;;;;;;;;;;4915836;29;20127;-36
2021/10/27 05:05:41;;;;;;;6.45;4.35;;;;;;;;;;4915776;29;20068;-36
2021/10/27 05:08:07;;;;;;;6.93;4.15;;;;;;;;;;4916022;29;20437;-36
2021/10/27 05:10:32;;;;;;;4.50;3.30;;;;;;;;;;4915791;29;20032;-36
2021/10/27 05:12:58;;;;;;;4.32;3.50;;;;;;;;;;4916016;29;20032;-36
2021/10/27 05:15:23;;;;;;;6.40;3.50;;;;;;;;;;4915579;29;20115;-36
2021/10/27 05:17:49;;;;;;;4.28;3.05;;;;;;;;;;4915660;29;20499;-36
2021/10/27 05:20:14;;;;;;;5.05;3.22;;;;;;;;;;4915613;29;20104;-36
2021/10/27 05:22:40;;;;;;;6.38;3.85;;;;;;;;;;4915486;29;20059;-36
2021/10/27 05:25:06;;;;;;;4.93;3.28;;;;;;;;;;4930073;29;20024;-36
2021/10/27 05:27:32;;;;;;;7.68;3.35;;;;;;;;;;4915545;29;20040;-36
2021/10/27 05:29:57;;;;;;;5.78;3.42;;;;;;;;;;4915733;29;20388;-36
2021/10/27 05:32:24;;;;;;;5.80;3.88;;;;;;;;;;4915391;29;20032;-36
2021/10/27 05:34:50;;;;;;;6.57;4.00;;;;;;;;;;4915210;29;20384;-36
2021/10/27 05:37:15;;;;;;;4.22;3.22;;;;;;;;;;4915363;29;20087;-35
2021/10/27 05:39:41;;;;;;;7.07;3.55;;;;;;;;;;4915385;29;20527;-35
2021/10/27 05:42:10;;;;;;;9.30;3.83;;;;;;;;;;4915112;29;20036;-35
2021/10/27 05:44:36;;;;;;;4.93;3.35;;;;;;;;;;4915267;29;20044;-36
2021/10/27 05:47:02;;;;;;;4.72;3.65;;;;;;;;;;4915183;29;20087;-36
2021/10/27 05:49:41;;;;;;;6.60;3.72;;;;;;;;;;4914994;29;20084;-36
2021/10/27 05:57:16;;;;;;;5.45;3.58;;;;;;;;;;4915017;29;20492;-36
2021/10/27 05:59:44;;;;;;;4.95;3.00;;;;;;;;;;4915186;29;20044;-36
2021/10/27 06:02:09;;;;;;;6.25;3.47;;;;;;;;;;4914940;29;20135;-36
2021/10/27 06:04:36;;;;;;;8.35;4.10;;;;;;;;;;4915035;29;20231;-36
2021/10/27 06:07:02;;;;;;;5.43;3.80;;;;;;;;;;4915362;29;20084;-36
2021/10/27 06:09:28;;;;;;;5.60;3.72;;;;;;;;;;4913967;29;20058;-36
2021/10/27 06:11:58;;;;;;;3.90;2.60;;;;;;;;;;4915288;29;20119;-42
2021/10/27 06:14:23;;;;;;;7.03;4.10;;;;;;;;;;4914866;29;20032;-36
2021/10/27 06:16:49;;;;;;;5.22;3.38;;;;;;;;;;4914949;29;20539;-36
2021/10/27 06:19:14;;;;;;;4.82;3.15;;;;;;;;;;4913772;29;20024;-36
2021/10/27 06:21:40;;;;;;;5.95;4.63;;;;;;;;;;4915036;29;20047;-36
2021/10/27 06:24:07;;;;;;;5.40;3.60;;;;;;;;;;4915060;29;20032;-36
2021/10/27 06:26:33;;;;;;;5.47;3.75;;;;;;;;;;4915153;29;20028;-36
2021/10/27 06:29:04;;;;;;;9.60;4.53;;;;;;;;;;4914821;29;20032;-36
2021/10/27 06:31:40;;;;;;;6.18;3.80;;;;;;;;;;4913639;29;20064;-36
2021/10/27 06:45:58;;;;;;;4.05;3.00;;;;;;;;;;4914835;29;20028;-36
2021/10/27 06:47:16;;;;;;;7.47;3.85;;;;;;;;;;4914885;29;20100;-35
2021/10/27 06:49:42;;;;;;;6.93;3.72;;;;;;;;;;4913450;29;20480;-35
2021/10/27 06:52:07;;;;;;;5.05;3.65;;;;;;;;;;4914545;29;20024;-35
2021/10/27 06:54:33;;;;;;;4.00;3.25;;;;;;;;;;4914839;29;20440;-36
2021/10/27 06:56:58;;;;;;;7.25;3.72;;;;;;;;;;4914665;29;20504;-36
2021/10/27 07:17:47;;;;;;;6.93;4.15;;;;;;;;;;4917762;29;20028;-36
2021/10/27 07:20:12;;;;;;;5.93;3.70;;;;;;;;;;4917701;29;20111;-36
2021/10/27 07:22:38;;;;;;;7.57;3.47;;;;;;;;;;4916426;29;20142;-36
2021/10/27 07:25:04;;;;;;;4.82;3.55;;;;;;;;;;4917605;29;20032;-36
2021/10/27 07:27:31;;;;;;;7.32;3.80;;;;;;;;;;4932422;29;20027;-36
2021/10/27 07:29:56;;;;;;;5.07;3.22;;;;;;;;;;4917601;29;20472;-36
2021/10/27 07:32:22;;;;;;;7.53;3.45;;;;;;;;;;4917536;29;20021;-36
2021/10/27 07:34:53;;;;;;;6.13;3.40;;;;;;;;;;4917258;29;20048;-36
2021/10/27 07:42:29;;;;;;;7.45;3.25;;;;;;;;;;4917474;29;20032;-36
2021/10/27 07:44:55;;;;;;;7.05;4.07;;;;;;;;;;4917294;29;20441;-36
2021/10/27 07:47:21;;;;;;;6.65;3.28;;;;;;;;;;4917443;29;20064;-36
2021/10/27 07:49:47;;;;;;;7.00;3.47;;;;;;;;;;4917208;29;20078;-36
2021/10/27 07:52:13;;;;;;;2.97;2.53;;;;;;;;;;4917018;29;20060;-36
2021/10/27 07:54:38;;;;;;;4.13;2.58;;;;;;;;;;4917149;29;20067;-36
2021/10/27 07:57:04;;;;;;;3.20;2.65;;;;;;;;;;4917201;29;20098;-36
2021/10/27 07:59:31;;;;;;;2.72;2.20;;;;;;;;;;4917061;29;20032;-36
2021/10/27 08:01:57;;;;;;;4.57;3.03;;;;;;;;;;4917060;29;20106;-35
2021/10/27 08:04:23;;;;;;;6.32;2.72;;;;;;;;;;4916863;29;20083;-36
2021/10/27 08:06:50;;;;;;;6.40;3.22;;;;;;;;;;4917056;29;20103;-36
2021/10/27 08:09:15;;;;;;;7.47;2.97;;;;;;;;;;4916862;29;20158;-35
2021/10/27 08:11:41;;;;;;;5.07;2.83;;;;;;;;;;4917113;29;20051;-36
2021/10/27 08:14:08;;;;;;;5.10;3.28;;;;;;;;;;4916851;29;20036;-36
2021/10/27 08:16:33;;;;;;;6.68;3.65;;;;;;;;;;4916620;29;20028;-36
2021/10/27 08:19:00;;;;;;;5.60;3.13;;;;;;;;;;4916172;29;20024;-36
2021/10/27 08:21:26;;;;;;;6.57;2.90;;;;;;;;;;4916715;29;20031;-36
2021/10/27 08:23:52;;;;;;;8.30;3.58;;;;;;;;;;4916511;29;20119;-36
2021/10/27 08:26:22;;;;;;;6.35;3.58;;;;;;;;;;4916640;29;20504;-36
2021/10/27 08:28:56;;;;;;;7.57;3.63;;;;;;;;;;4916560;29;20032;-36
2021/10/27 08:36:18;;;;;;;5.38;2.30;;;;;;;;;;4916456;29;20033;-36
2021/10/27 08:38:43;;;;;;;4.40;3.10;;;;;;;;;;4916350;29;20470;-35
2021/10/27 08:41:09;;;;;;;5.40;3.03;;;;;;;;;;4916569;29;20141;-36
2021/10/27 08:43:35;;;;;;;3.20;2.63;;;;;;;;;;4931016;29;20036;-36
2021/10/27 08:46:01;;;;;;;5.13;2.15;;;;;;;;;;4914929;29;20133;-36
2021/10/27 08:48:27;;;;;;;4.50;2.58;;;;;;;;;;4916133;29;20043;-36
2021/10/27 08:50:53;;;;;;;4.63;2.78;;;;;;;;;;4916194;29;20396;-36
2021/10/27 08:53:21;;;;;;;6.45;3.45;;;;;;;;;;4916045;29;20076;-36
2021/10/27 08:55:49;;;;;;;5.65;3.30;;;;;;;;;;4916141;29;20043;-36
2021/10/27 08:58:25;;;;;;;4.97;3.03;;;;;;;;;;4915965;29;20356;-36
2021/10/27 09:06:15;;;;;;;5.68;3.20;;;;;;;;;;4916278;29;20039;-36
2021/10/27 09:17:22;;;;;;;5.38;2.63;;;;;;;;;;4915710;29;20028;-36
2021/10/27 09:39:37;;;;;;;6.13;2.13;;;;;;;;;;4915626;29;20419;-36
2021/10/27 09:45:09;;;;;;;2.50;1.85;;;;;;;;;;4915236;29;20032;-36
2021/10/27 09:48:03;;;;;;;3.75;2.28;;;;;;;;;;4914949;29;20071;-35
2021/10/27 10:06:48;;;;;;;3.30;2.35;;;;;;;;;;4913941;29;20044;-36
2021/10/27 10:09:14;;;;;;;3.47;2.00;;;;;;;;;;4914974;29;20104;-36
2021/10/27 10:11:41;;;;;;;3.58;2.47;;;;;;;;;;4913646;29;20111;-36
2021/10/27 10:14:07;;;;;;;4.25;2.85;;;;;;;;;;4915034;29;20020;-36
2021/10/27 10:16:40;;;;;;;2.33;1.50;;;;;;;;;;4913645;29;20845;-36
2021/10/27 10:19:09;;;;;;;2.47;1.60;;;;;;;;;;4914974;29;20493;-36
2021/10/27 10:21:39;;;;;;;4.15;2.55;;;;;;;;;;4914901;29;20125;-36
2021/10/27 10:24:25;;;;;;;2.05;1.65;;;;;;;;;;4914858;29;20050;-36
2021/10/27 10:26:51;;;;;;;3.78;2.15;;;;;;;;;;4914957;29;20395;-36
2021/10/27 10:29:40;;;;;;;3.22;2.22;;;;;;;;;;4914808;29;20099;-36
2021/10/27 10:32:23;;;;;;;2.65;2.40;;;;;;;;;;4914841;29;20047;-36
2021/10/27 10:34:52;;;;;;;2.60;1.83;;;;;;;;;;4914615;29;20068;-36
2021/10/27 10:37:28;;;;;;;4.50;2.42;;;;;;;;;;4914958;29;20435;-36
2021/10/27 10:39:55;;;;;;;5.75;2.15;;;;;;;;;;4914633;29;20119;-36
2021/10/27 10:42:47;;;;;;;2.38;2.10;;;;;;;;;;4917161;29;20043;-36
2021/10/27 10:56:09;;;;;;;5.03;1.30;;;;;;;;;;4918402;29;20028;-36
2021/10/27 11:25:10;;;;;;;2.63;1.60;;;;;;;;;;4859362;29;20132;-37
2021/10/27 11:41:59;;;;;;;2.33;1.75;;;;;;;;;;4917401;29;20036;-37
2021/10/27 11:44:33;;;;;;;3.47;2.17;;;;;;;;;;4917245;29;20059;-36
2021/10/27 11:47:07;;;;;;;3.03;1.92;;;;;;;;;;4917432;29;20095;-36
2021/10/27 11:49:41;;;;;;;6.38;1.77;;;;;;;;;;4917333;29;20068;-37
2021/10/27 11:52:08;;;;;;;2.55;1.58;;;;;;;;;;4915523;29;20447;-37
2021/10/27 11:54:38;;;;;;;2.78;1.60;;;;;;;;;;4916623;29;20028;-37
2021/10/27 11:57:04;;;;;;;3.58;1.73;;;;;;;;;;4917427;29;20411;-36
2021/10/27 11:59:45;;;;;;;1.60;1.30;;;;;;;;;;4917340;29;20024;-37
2021/10/27 12:02:11;;;;;;;2.35;1.77;;;;;;;;;;4917222;29;20039;-37
2021/10/27 12:04:38;;;;;;;3.63;1.80;;;;;;;;;;4916902;29;20103;-36
2021/10/27 12:10:10;;;;;;;4.28;1.27;;;;;;;;;;4915675;29;20109;-37
2021/10/27 12:17:59;;;;;;;1.80;1.30;;;;;;;;;;4916831;29;20016;-36
2021/10/27 12:20:38;;;;;;;7.78;1.67;;;;;;;;;;4916729;29;20036;-37
2021/10/27 12:23:05;;;;;;;1.77;1.60;;;;;;;;;;4916641;29;20436;-37
2021/10/27 12:25:31;;;;;;;2.28;1.52;;;;;;;;;;4916643;29;20486;-37
2021/10/27 12:28:03;;;;;;;3.30;1.50;;;;;;;;;;4916507;29;20040;-37
2021/10/27 12:30:41;;;;;;;2.90;1.63;;;;;;;;;;4916800;29;20028;-36
2021/10/27 12:33:07;;;;;;;4.25;1.83;;;;;;;;;;4916284;29;20035;-37
2021/10/27 12:35:33;;;;;;;4.60;2.05;;;;;;;;;;4916449;29;20036;-36
2021/10/27 12:38:14;;;;;;;2.33;2.03;;;;;;;;;;4916410;29;20035;-36
2021/10/27 12:40:45;;;;;;;2.35;1.65;;;;;;;;;;4916521;29;20157;-37
2021/10/27 12:43:11;;;;;;;3.15;1.75;;;;;;;;;;4916258;29;20036;-37
2021/10/27 12:45:37;;;;;;;1.52;1.15;;;;;;;;;;4916518;29;20027;-37
2021/10/27 12:48:05;;;;;;;4.72;1.73;;;;;;;;;;4916157;29;20036;-37
2021/10/27 12:50:32;;;;;;;2.67;2.00;;;;;;;;;;4916184;29;20020;-37
2021/10/27 12:53:02;;;;;;;4.93;1.98;;;;;;;;;;4916150;29;20411;-37
2021/10/27 12:55:32;;;;;;;2.80;1.63;;;;;;;;;;4915995;29;20560;-37
2021/10/27 12:58:01;;;;;;;4.68;2.08;;;;;;;;;;4916080;29;20032;-36
2021/10/27 13:00:36;;;;;;;3.35;1.95;;;;;;;;;;4914680;29;20032;-36
2021/10/27 13:05:52;;;;;;;2.38;1.65;;;;;;;;;;4915640;29;20040;-37
2021/10/27 13:08:49;;;;;;;3.58;1.42;;;;;;;;;;4916087;29;20055;-36
2021/10/27 13:11:31;;;;;;;1.75;1.50;;;;;;;;;;4915758;29;20032;-37
2021/10/27 13:14:26;;;;;;;2.03;1.15;;;;;;;;;;4915638;29;20480;-37
2021/10/27 13:30:01;;;;;;;1.55;1.38;;;;;;;;;;4915570;29;20107;-37
2021/10/27 13:32:27;;;;;;;4.18;1.30;;;;;;;;;;4915558;29;20028;-36
2021/10/27 13:34:53;;;;;;;7.43;1.77;;;;;;;;;;4915214;29;20113;-37
2021/10/27 13:37:19;;;;;;;4.00;1.48;;;;;;;;;;4915327;29;20032;-37
2021/10/27 13:39:48;;;;;;;2.30;1.35;;;;;;;;;;4915483;29;20154;-37
2021/10/27 13:42:21;;;;;;;1.83;1.45;;;;;;;;;;4915303;29;20083;-37
2021/10/27 13:58:29;;;;;;;2.55;1.77;;;;;;;;;;4915184;29;20036;-37
2021/10/27 14:06:47;;;;;;;2.28;1.27;;;;;;;;;;4914975;29;20052;-37
2021/10/27 14:09:29;;;;;;;2.78;1.38;;;;;;;;;;4914800;29;20047;-37
2021/10/27 14:12:11;;;;;;;2.33;1.55;;;;;;;;;;4915366;29;20055;-37
2021/10/27 14:14:41;;;;;;;4.07;1.70;;;;;;;;;;4914928;29;20472;-37
2021/10/27 14:47:31;;;;;;;2.45;1.92;;;;;;;;;;4918379;29;20111;-37
2021/10/27 15:52:06;;;;;;;2.28;1.98;;;;;;;;;;4917297;29;20035;-37
2021/10/27 15:54:32;;;;;;;3.60;1.88;;;;;;;;;;4917159;29;20063;-37
2021/10/27 15:56:59;;;;;;;2.35;1.48;;;;;;;;;;4917348;29;20365;-38
2021/10/27 15:59:24;;;;;;;4.00;1.60;;;;;;;;;;4917260;29;20016;-37
2021/10/27 16:01:51;;;;;;;3.75;1.98;;;;;;;;;;4917036;29;20039;-37
2021/10/27 16:04:17;;;;;;;2.30;1.85;;;;;;;;;;4900191;29;20111;-37
2021/10/27 16:06:54;;;;;;;2.42;1.48;;;;;;;;;;4917093;29;20178;-37
2021/10/27 16:09:22;;;;;;;5.13;2.00;;;;;;;;;;4916953;29;20151;-37
2021/10/27 16:11:48;;;;;;;8.45;2.15;;;;;;;;;;4916985;29;20483;-40
2021/10/27 16:14:14;;;;;;;3.10;1.98;;;;;;;;;;4917055;29;20037;-37
2021/10/27 16:16:40;;;;;;;8.75;2.60;;;;;;;;;;4916952;29;20028;-37
2021/10/27 16:19:05;;;;;;;2.10;1.73;;;;;;;;;;4916813;29;20032;-37
2021/10/27 16:21:31;;;;;;;2.75;2.17;;;;;;;;;;4916799;29;20043;-37
2021/10/27 16:23:57;;;;;;;2.13;1.80;;;;;;;;;;4916602;29;20062;-37
2021/10/27 16:26:23;;;;;;;3.42;2.05;;;;;;;;;;4916664;29;20031;-40
2021/10/27 16:28:50;;;;;;;2.53;1.95;;;;;;;;;;4916502;29;20036;-37
2021/10/27 16:31:16;;;;;;;8.38;2.05;;;;;;;;;;4916615;29;20024;-37
2021/10/27 16:33:44;;;;;;;3.40;1.65;;;;;;;;;;4930942;29;20052;-37
2021/10/27 16:36:11;;;;;;;4.32;2.03;;;;;;;;;;4916474;29;20030;-37
2021/10/27 16:42:12;;;;;;;3.80;1.98;;;;;;;;;;4916486;29;20175;-37
2021/10/27 16:44:38;;;;;;;4.65;2.08;;;;;;;;;;4916255;29;20036;-37
2021/10/27 16:47:04;;;;;;;3.90;3.15;;;;;;;;;;4916210;29;20027;-37
2021/10/27 16:49:29;;;;;;;3.80;2.15;;;;;;;;;;4916121;29;20063;-37
2021/10/27 16:51:55;;;;;;;5.63;1.77;;;;;;;;;;4916267;29;20091;-37
2021/10/27 16:54:21;;;;;;;3.22;2.20;;;;;;;;;;4916070;29;20032;-37
2021/10/27 16:56:48;;;;;;;2.38;1.77;;;;;;;;;;4916089;29;20098;-39
2021/10/27 16:59:13;;;;;;;4.50;2.45;;;;;;;;;;4916132;29;20116;-37
2021/10/27 17:01:39;;;;;;;5.63;2.00;;;;;;;;;;4916003;29;20035;-36
2021/10/27 17:04:05;;;;;;;3.85;2.30;;;;;;;;;;4915907;29;20513;-37
2021/10/27 17:06:33;;;;;;;2.67;1.83;;;;;;;;;;4915892;29;20388;-37
2021/10/27 17:08:59;;;;;;;2.97;2.03;;;;;;;;;;4915965;29;20067;-37
2021/10/27 17:11:24;;;;;;;2.00;1.73;;;;;;;;;;4914575;29;20442;-37
2021/10/27 17:13:50;;;;;;;4.82;2.70;;;;;;;;;;4915790;29;20032;-37
2021/10/27 17:16:16;;;;;;;4.10;2.15;;;;;;;;;;4916134;29;20348;-37
2021/10/27 17:18:43;;;;;;;3.33;2.00;;;;;;;;;;4915567;29;20036;-37
2021/10/27 17:21:10;;;;;;;3.38;2.85;;;;;;;;;;4915838;29;20064;-37
2021/10/27 17:23:38;;;;;;;2.88;2.17;;;;;;;;;;4915521;29;20042;-37
2021/10/27 17:26:05;;;;;;;4.28;2.40;;;;;;;;;;4915600;29;20031;-37
2021/10/27 17:28:31;;;;;;;4.22;2.47;;;;;;;;;;4915531;29;20032;-37
2021/10/27 17:30:57;;;;;;;5.35;2.25;;;;;;;;;;4915426;29;20027;-37
2021/10/27 17:33:23;;;;;;;4.97;2.03;;;;;;;;;;4915233;29;20050;-37
2021/10/27 17:35:50;;;;;;;5.13;2.35;;;;;;;;;;4915798;29;20483;-38
2021/10/27 17:38:16;;;;;;;3.05;2.15;;;;;;;;;;4915493;29;20036;-37
2021/10/27 17:40:45;;;;;;;3.63;2.33;;;;;;;;;;4915593;29;20567;-37
2021/10/27 17:43:11;;;;;;;5.50;2.20;;;;;;;;;;4929721;29;20046;-37
2021/10/27 17:45:38;;;;;;;5.30;2.75;;;;;;;;;;4915500;29;20028;-37
2021/10/27 17:48:13;;;;;;;4.20;3.05;;;;;;;;;;4915002;29;20123;-37
2021/10/27 18:00:59;;;;;;;2.58;2.20;;;;;;;;;;4915180;29;20072;-37
2021/10/27 18:03:25;;;;;;;2.47;1.98;;;;;;;;;;4914939;29;20032;-37
2021/10/27 18:05:51;;;;;;;4.10;2.53;;;;;;;;;;4915219;29;20020;-37
2021/10/27 18:08:20;;;;;;;2.80;2.40;;;;;;;;;;4915107;29;20027;-37
2021/10/27 18:10:50;;;;;;;3.63;2.38;;;;;;;;;;4914986;29;20024;-37
2021/10/27 18:13:20;;;;;;;3.63;1.95;;;;;;;;;;4915041;29;20031;-37
2021/10/27 18:15:48;;;;;;;3.70;2.13;;;;;;;;;;4915037;29;20176;-37
2021/10/27 18:18:21;;;;;;;3.22;2.38;;;;;;;;;;4915016;29;20401;-37
2021/10/27 18:20:50;;;;;;;3.10;2.15;;;;;;;;;;4914878;29;20540;-37
2021/10/27 18:39:33;;;;;;;7.63;3.22;;;;;;;;;;4914782;29;20028;-37
2021/10/27 18:42:04;;;;;;;3.00;2.13;;;;;;;;;;4929322;29;20056;-37
2021/10/27 18:44:29;;;;;;;4.43;2.13;;;;;;;;;;4914702;29;20032;-37
2021/10/27 18:46:55;;;;;;;2.38;1.90;;;;;;;;;;4914869;29;20104;-37
2021/10/27 18:49:21;;;;;;;3.05;2.15;;;;;;;;;;4914646;29;20084;-37
2021/10/27 18:52:05;;;;;;;4.00;2.28;;;;;;;;;;4914905;29;20024;-37
2021/10/27 18:54:55;;;;;;;6.90;2.47;;;;;;;;;;4914660;29;20060;-37
2021/10/27 19:11:07;;;;;;;4.68;2.63;;;;;;;;;;4918125;29;20111;-37
2021/10/27 19:16:03;;;;;;;4.22;2.42;;;;;;;;;;4918013;29;20467;-37
2021/10/27 19:18:28;;;;;;;7.05;2.40;;;;;;;;;;4918141;29;20035;-38
2021/10/27 19:20:56;;;;;;;2.95;2.28;;;;;;;;;;4916639;29;20088;-37
2021/10/27 19:23:22;;;;;;;4.10;2.58;;;;;;;;;;4918004;29;20107;-37
2021/10/27 20:51:29;;;;;;;4.72;3.25;;;;;;;;;;4914904;29;20119;-37
2021/10/27 20:53:55;;;;;;;5.22;3.38;;;;;;;;;;4916135;29;20032;-37
2021/10/27 20:56:22;;;;;;;6.90;3.90;;;;;;;;;;4916198;29;20043;-37
2021/10/27 21:01:37;;;;;;;9.60;3.95;;;;;;;;;;4915925;29;20064;-37
2021/10/27 21:04:29;;;;;;;4.20;3.28;;;;;;;;;;4916052;29;20040;-37
2021/10/27 21:12:44;;;;;;;5.15;2.95;;;;;;;;;;4875833;29;20029;-37
2021/10/27 21:15:10;;;;;;;4.55;3.00;;;;;;;;;;4910104;29;20134;-37
2021/10/27 21:17:36;;;;;;;8.38;5.28;;;;;;;;;;4915720;29;20143;-37
2021/10/27 21:20:05;;;;;;;8.05;3.83;;;;;;;;;;4915875;29;20123;-37
2021/10/27 21:22:30;;;;;;;9.25;3.90;;;;;;;;;;4915558;29;20027;-37
2021/10/27 21:24:56;;;;;;;7.30;3.53;;;;;;;;;;4915359;29;20032;-38
2021/10/27 21:43:20;;;;;;;4.55;2.90;;;;;;;;;;4915281;29;20146;-37
2021/10/27 21:45:45;;;;;;;6.70;3.33;;;;;;;;;;4915414;29;20054;-37
2021/10/27 21:48:12;;;;;;;4.78;3.20;;;;;;;;;;4915286;29;20403;-37
2021/10/27 21:50:38;;;;;;;8.00;3.50;;;;;;;;;;4915249;29;20019;-37
2021/10/27 21:53:03;;;;;;;5.72;4.00;;;;;;;;;;4915259;29;20028;-37
2021/10/27 21:55:30;;;;;;;10.95;3.55;;;;;;;;;;4915375;29;20028;-38
2021/10/27 21:57:56;;;;;;;4.05;2.90;;;;;;;;;;4915309;29;20107;-37
2021/10/27 22:00:40;;;;;;;10.52;4.35;;;;;;;;;;4915193;29;20111;-37
2021/10/27 22:03:06;;;;;;;6.57;4.05;;;;;;;;;;4915012;29;20545;-37
2021/10/27 22:05:32;;;;;;;10.48;4.82;;;;;;;;;;4915089;29;20099;-37
2021/10/27 22:07:57;;;;;;;9.93;3.95;;;;;;;;;;4915032;29;20047;-37